createdAt,value
2019-01-24T00:00:43.937Z,65.69
2019-01-24T00:03:24.839Z,65.65
2019-01-24T00:06:06.420Z,65.58
2019-01-24T00:12:09.491Z,65.46
2019-01-24T00:15:11.583Z,65.49
2019-01-24T00:17:52.415Z,65.42
2019-01-24T00:20:24.091Z,65.33
2019-01-24T00:23:12.977Z,65.26
2019-01-24T00:26:13.345Z,65.29
2019-01-24T00:35:13.928Z,65.17
2019-01-24T00:38:03.609Z,65.30
2019-01-24T00:40:44.706Z,65.33
2019-01-24T00:43:14.867Z,65.34
2019-01-24T00:49:25.242Z,65.07
2019-01-24T00:52:34.240Z,65.00
2019-01-24T00:55:15.123Z,65.05
2019-01-24T00:58:24.748Z,65.10
2019-01-24T01:01:13.808Z,65.13
2019-01-24T01:03:44.415Z,65.00
2019-01-24T01:09:24.329Z,65.11
2019-01-24T01:14:55.016Z,64.94
2019-01-24T01:17:36.751Z,64.92
2019-01-24T01:20:25.829Z,65.15
2019-01-24T01:23:14.910Z,65.12
2019-01-24T01:25:55.878Z,65.05
2019-01-24T01:28:36.912Z,65.12
2019-01-24T01:31:46.075Z,65.03
2019-01-24T01:38:04.439Z,65.22
2019-01-24T01:40:53.411Z,65.30
2019-01-24T01:47:05.117Z,65.39
2019-01-24T01:49:48.653Z,65.65
2019-01-24T01:52:29.428Z,65.67
2019-01-24T01:58:13.796Z,65.74
2019-01-24T02:10:18.569Z,65.87
2019-01-24T02:13:20.729Z,65.85
2019-01-24T02:16:02.677Z,66.01
2019-01-24T02:18:43.755Z,66.06
2019-01-24T02:21:52.873Z,66.16
2019-01-24T02:27:58.353Z,66.16
2019-01-24T02:30:39.199Z,66.17
2019-01-24T02:36:39.733Z,66.26
2019-01-24T02:42:39.094Z,66.29
2019-01-24T02:45:22.122Z,66.26
2019-01-24T02:48:03.873Z,66.26
2019-01-24T02:50:44.640Z,66.14
2019-01-24T02:56:36.061Z,66.24
2019-01-24T02:59:16.427Z,66.41
2019-01-24T03:02:05.652Z,66.38
2019-01-24T03:04:35.881Z,66.46
2019-01-24T03:07:45.177Z,66.52
2019-01-24T03:16:52.711Z,66.55
2019-01-24T03:19:34.217Z,66.63
2019-01-24T03:22:04.249Z,66.73
2019-01-24T03:25:13.144Z,66.84
2019-01-24T03:28:13.309Z,66.88
2019-01-24T03:30:55.042Z,66.78
2019-01-24T03:36:38.094Z,66.94
2019-01-24T03:39:48.514Z,66.91
2019-01-24T03:45:27.887Z,67.10
2019-01-24T03:48:16.820Z,67.01
2019-01-24T03:53:48.829Z,67.13
2019-01-24T03:59:46.190Z,67.22
2019-01-24T04:02:19.929Z,67.12
2019-01-24T04:04:50.022Z,67.14
2019-01-24T04:07:20.263Z,67.23
2019-01-24T04:09:50.353Z,67.23
2019-01-24T04:12:20.506Z,67.04
2019-01-24T04:14:50.302Z,66.97
2019-01-24T04:17:20.318Z,66.97
2019-01-24T04:23:32.006Z,66.94
2019-01-24T04:29:22.924Z,66.74
2019-01-24T04:32:04.315Z,66.62
2019-01-24T04:34:54.903Z,66.69
2019-01-24T04:37:43.806Z,66.76
2019-01-24T04:40:15.856Z,66.65
2019-01-24T04:43:07.460Z,66.56
2019-01-24T04:45:38.066Z,66.61
2019-01-24T04:51:51.280Z,66.48
2019-01-24T04:54:21.604Z,66.39
2019-01-24T04:57:11.438Z,66.35
2019-01-24T05:00:01.605Z,66.28
2019-01-24T05:02:44.630Z,66.13
2019-01-24T05:05:14.909Z,66.08
2019-01-24T05:13:53.243Z,66.01
2019-01-24T05:19:28.311Z,66.17
2019-01-24T05:22:11.600Z,66.15
2019-01-24T05:25:20.713Z,66.13
2019-01-24T05:30:54.169Z,66.09
2019-01-24T05:33:24.432Z,66.14
2019-01-24T05:36:13.261Z,66.21
2019-01-24T05:38:43.160Z,66.15
2019-01-24T05:41:36.611Z,66.06
2019-01-24T05:44:07.528Z,66.04
2019-01-24T05:46:57.178Z,66.15
2019-01-24T05:49:28.786Z,66.13
2019-01-24T05:52:00.806Z,66.10
2019-01-24T06:01:13.121Z,66.40
2019-01-24T06:04:13.828Z,66.53
2019-01-24T06:06:58.239Z,66.57
2019-01-24T06:09:40.910Z,66.67
2019-01-24T06:12:22.149Z,66.69
2019-01-24T06:15:31.434Z,66.71
2019-01-24T06:18:20.763Z,66.77
2019-01-24T06:24:33.502Z,66.85
2019-01-24T06:30:31.660Z,66.86
2019-01-24T06:33:01.830Z,66.86
2019-01-24T06:35:31.910Z,67.01
2019-01-24T06:38:02.244Z,66.96
2019-01-24T06:40:32.242Z,67.03
2019-01-24T06:43:02.121Z,67.04
2019-01-24T06:45:33.784Z,67.08
2019-01-24T06:48:03.959Z,67.08
2019-01-24T06:50:35.869Z,67.19
2019-01-24T06:53:09.136Z,67.23
2019-01-24T06:55:42.227Z,67.34
2019-01-24T06:58:13.286Z,67.37
2019-01-24T07:00:44.488Z,67.49
2019-01-24T07:03:16.476Z,67.47
2019-01-24T07:09:10.361Z,67.53
2019-01-24T07:11:40.717Z,67.62
2019-01-24T07:14:10.736Z,67.75
2019-01-24T07:16:40.513Z,67.76
2019-01-24T07:19:13.194Z,67.81
2019-01-24T07:21:43.505Z,67.79
2019-01-24T07:24:13.960Z,67.82
2019-01-24T07:26:45.122Z,67.76
2019-01-24T07:29:15.352Z,67.64
2019-01-24T07:31:46.823Z,67.69
2019-01-24T07:43:40.097Z,67.75
2019-01-24T07:52:19.543Z,67.91
2019-01-24T07:58:05.920Z,68.11
2019-01-24T08:00:37.345Z,68.01
2019-01-24T08:06:20.621Z,68.15
2019-01-24T08:08:51.116Z,68.07
2019-01-24T08:11:23.405Z,68.13
2019-01-24T08:14:32.312Z,68.21
2019-01-24T08:23:44.388Z,68.42
2019-01-24T08:28:59.411Z,68.49
2019-01-24T08:31:40.977Z,68.46
2019-01-24T08:34:21.889Z,68.48
2019-01-24T08:37:11.035Z,68.32
2019-01-24T08:39:43.834Z,68.21
2019-01-24T08:42:13.972Z,68.19
2019-01-24T08:44:45.080Z,68.19
2019-01-24T08:47:15.397Z,68.29
2019-01-24T08:49:45.256Z,68.28
2019-01-24T08:52:15.652Z,68.29
2019-01-24T08:54:45.867Z,68.30
2019-01-24T08:57:15.919Z,68.36
2019-01-24T08:59:46.080Z,68.21
2019-01-24T09:02:17.417Z,68.11
2019-01-24T09:04:47.347Z,67.87
2019-01-24T09:07:18.202Z,67.71
2019-01-24T09:09:53.782Z,67.48
2019-01-24T09:12:30.063Z,67.33
2019-01-24T09:14:56.224Z,67.21
2019-01-24T09:17:30.620Z,66.96
2019-01-24T09:20:02.202Z,66.52
2019-01-24T09:22:32.210Z,65.69
2019-01-24T09:25:06.733Z,65.94
2019-01-24T09:27:37.088Z,65.95
2019-01-24T09:30:10.374Z,65.82
2019-01-24T09:32:40.825Z,65.25
2019-01-24T09:35:11.600Z,64.92
2019-01-24T09:37:41.977Z,64.92
2019-01-24T09:40:13.047Z,64.74
2019-01-24T09:42:43.660Z,64.10
2019-01-24T09:45:19.777Z,63.54
2019-01-24T09:47:50.216Z,63.24
2019-01-24T09:50:22.271Z,62.84
2019-01-24T09:52:52.362Z,62.98
2019-01-24T09:58:57.093Z,62.73
2019-01-24T10:04:49.310Z,62.73
2019-01-24T10:10:29.394Z,62.43
2019-01-24T10:16:19.814Z,61.04
2019-01-24T10:19:29.796Z,60.78
2019-01-24T10:22:19.027Z,60.67
2019-01-24T10:25:20.124Z,59.74
2019-01-24T10:28:01.728Z,59.18
2019-01-24T10:30:43.422Z,59.10
2019-01-24T10:36:17.588Z,59.44
2019-01-24T10:38:59.139Z,59.40
2019-01-24T10:41:42.387Z,59.12
2019-01-24T10:44:23.907Z,59.34
2019-01-24T10:47:05.403Z,58.94
2019-01-24T10:49:47.096Z,58.57
2019-01-24T10:52:29.321Z,58.57
2019-01-24T10:55:13.684Z,58.87
2019-01-24T11:01:24.048Z,59.07
2019-01-24T11:04:33.300Z,58.91
2019-01-24T11:07:23.115Z,58.95
2019-01-24T11:16:07.682Z,59.14
2019-01-24T11:18:49.533Z,59.29
2019-01-24T11:21:49.483Z,59.42
2019-01-24T11:24:29.742Z,59.01
2019-01-24T11:27:18.963Z,58.50
2019-01-24T11:29:49.978Z,58.17
2019-01-24T11:32:21.403Z,58.17
2019-01-24T11:35:30.469Z,57.93
2019-01-24T11:38:19.575Z,57.63
2019-01-24T11:44:18.994Z,56.96
2019-01-24T11:47:27.966Z,57.02
2019-01-24T11:50:27.788Z,57.10
2019-01-24T11:53:28.594Z,57.23
2019-01-24T11:56:11.980Z,57.24
2019-01-24T11:58:42.160Z,56.82
2019-01-24T12:04:26.411Z,56.88
2019-01-24T12:10:20.650Z,56.34
2019-01-24T12:13:09.988Z,56.58
2019-01-24T12:16:19.306Z,56.96
2019-01-24T12:22:00.213Z,57.38
2019-01-24T12:24:41.053Z,57.56
2019-01-24T12:27:11.365Z,57.64
2019-01-24T12:29:42.161Z,57.58
2019-01-24T12:32:12.049Z,57.86
2019-01-24T12:35:02.769Z,57.96
2019-01-24T12:37:44.367Z,57.74
2019-01-24T12:43:36.024Z,57.85
2019-01-24T12:46:25.319Z,57.84
2019-01-24T12:49:06.468Z,57.71
2019-01-24T12:52:14.263Z,57.39
2019-01-24T12:57:55.429Z,57.76
2019-01-24T13:00:36.601Z,57.44
2019-01-24T13:03:26.257Z,57.74
2019-01-24T13:05:57.723Z,57.52
2019-01-24T13:08:32.977Z,57.73
2019-01-24T13:11:06.982Z,58.11
2019-01-24T13:13:40.115Z,58.06
2019-01-24T13:16:10.589Z,58.36
2019-01-24T13:18:41.558Z,58.55
2019-01-24T13:21:11.724Z,58.74
2019-01-24T13:23:41.805Z,59.00
2019-01-24T13:26:14.778Z,58.92
2019-01-24T13:28:46.647Z,58.70
2019-01-24T13:31:17.258Z,58.66
2019-01-24T13:33:47.538Z,58.78
2019-01-24T13:36:20.045Z,58.74
2019-01-24T13:38:50.445Z,58.71
2019-01-24T13:41:20.919Z,58.98
2019-01-24T13:43:51.158Z,59.23
2019-01-24T13:46:21.837Z,59.43
2019-01-24T13:48:53.517Z,59.62
2019-01-24T13:51:24.434Z,59.59
2019-01-24T13:53:54.631Z,59.63
2019-01-24T13:59:39.328Z,60.00
2019-01-24T14:02:39.850Z,60.56
2019-01-24T14:05:41.538Z,60.60
2019-01-24T14:08:23.146Z,60.70
2019-01-24T14:11:07.529Z,60.59
2019-01-24T14:13:48.622Z,60.69
2019-01-24T14:20:00.697Z,60.86
2019-01-24T14:22:33.570Z,61.15
2019-01-24T14:25:05.206Z,61.54
2019-01-24T14:27:38.136Z,61.76
2019-01-24T14:36:30.142Z,61.93
2019-01-24T14:42:16.175Z,62.35
2019-01-24T14:48:34.394Z,62.42
2019-01-24T14:51:10.920Z,62.59
2019-01-24T14:53:41.263Z,62.70
2019-01-24T14:56:17.927Z,62.70
2019-01-24T14:58:51.013Z,62.82
2019-01-24T15:01:25.255Z,62.95
2019-01-24T15:04:14.139Z,63.17
2019-01-24T15:10:05.531Z,63.30
2019-01-24T15:12:46.905Z,63.55
2019-01-24T15:18:29.815Z,63.97
2019-01-24T15:21:12.214Z,63.93
2019-01-24T15:23:54.017Z,63.86
2019-01-24T15:27:03.221Z,63.49
2019-01-24T15:30:11.157Z,63.42
2019-01-24T15:33:20.662Z,63.68
2019-01-24T15:35:51.755Z,63.97
2019-01-24T15:38:30.440Z,64.17
2019-01-24T15:41:04.766Z,64.31
2019-01-24T15:43:38.571Z,64.52
2019-01-24T15:46:15.068Z,64.57
2019-01-24T15:51:44.391Z,64.58
2019-01-24T15:54:19.146Z,64.60
2019-01-24T15:56:54.629Z,64.68
2019-01-24T16:00:05.084Z,64.81
2019-01-24T16:02:37.106Z,64.81
2019-01-24T16:05:09.936Z,65.07
2019-01-24T16:07:40.011Z,65.08
2019-01-24T16:10:12.327Z,65.09
2019-01-24T16:12:42.819Z,64.95
2019-01-24T16:15:26.606Z,65.05
2019-01-24T16:18:01.492Z,65.23
2019-01-24T16:20:32.874Z,65.23
2019-01-24T16:23:40.605Z,65.33
2019-01-24T16:32:24.446Z,65.83
2019-01-24T16:35:06.901Z,66.14
2019-01-24T16:38:09.450Z,66.34
2019-01-24T16:40:51.523Z,66.46
2019-01-24T16:49:14.395Z,66.81
2019-01-24T16:54:59.699Z,67.26
2019-01-24T17:00:25.532Z,67.62
2019-01-24T17:03:07.495Z,67.67
2019-01-24T17:05:40.631Z,67.89
2019-01-24T17:08:16.745Z,68.02
2019-01-24T17:10:47.307Z,68.12
2019-01-24T17:13:20.800Z,68.00
2019-01-24T17:16:10.908Z,68.05
2019-01-24T17:18:47.260Z,68.22
2019-01-24T17:21:28.306Z,68.21
2019-01-24T17:24:07.373Z,68.35
2019-01-24T17:30:35.262Z,68.50
2019-01-24T17:33:17.861Z,68.69
2019-01-24T17:36:03.268Z,68.74
2019-01-24T17:38:45.191Z,68.92
2019-01-24T17:41:28.055Z,69.12
2019-01-24T17:44:13.131Z,69.01
2019-01-24T17:46:57.537Z,69.37
2019-01-24T17:52:47.626Z,69.64
2019-01-24T17:55:31.625Z,69.65
2019-01-24T17:58:13.565Z,69.67
2019-01-24T18:00:58.838Z,69.85
2019-01-24T18:03:42.657Z,69.73
2019-01-24T18:09:10.213Z,69.73
2019-01-24T18:14:41.121Z,69.98
2019-01-24T18:17:23.030Z,70.07
2019-01-24T18:29:45.838Z,70.42
2019-01-24T18:32:45.476Z,70.50
2019-01-24T18:47:05.846Z,70.75
2019-01-24T18:49:40.796Z,71.01
2019-01-24T18:52:14.333Z,70.90
2019-01-24T18:54:50.763Z,70.98
2019-01-24T18:57:33.012Z,71.14
2019-01-24T19:00:16.843Z,71.16
2019-01-24T19:02:56.175Z,71.36
2019-01-24T19:08:45.923Z,71.46
2019-01-24T19:11:25.445Z,71.41
2019-01-24T19:14:07.496Z,71.37
2019-01-24T19:16:51.047Z,71.34
2019-01-24T19:23:24.416Z,71.41
2019-01-24T19:26:05.657Z,71.46
2019-01-24T19:28:48.515Z,71.48
2019-01-24T19:31:35.872Z,71.50
2019-01-24T19:34:17.931Z,71.48
2019-01-24T19:37:03.227Z,71.58
2019-01-24T19:39:46.339Z,71.70
2019-01-24T19:42:28.706Z,71.75
2019-01-24T19:45:10.842Z,71.69
2019-01-24T19:47:53.362Z,71.67
2019-01-24T19:50:44.215Z,71.75
2019-01-24T19:53:22.268Z,71.81
2019-01-24T19:55:59.645Z,71.77
2019-01-24T20:02:12.890Z,71.82
2019-01-24T20:04:55.133Z,71.86
2019-01-24T20:08:08.141Z,71.96
2019-01-24T20:10:40.717Z,71.88
2019-01-24T20:13:17.074Z,71.84
2019-01-24T20:15:52.358Z,71.88
2019-01-24T20:18:31.578Z,71.92
2019-01-24T20:21:08.539Z,71.91
2019-01-24T20:23:42.710Z,71.83
2019-01-24T20:26:19.615Z,71.73
2019-01-24T20:28:51.799Z,71.55
2019-01-24T20:31:29.247Z,71.55
2019-01-24T20:34:18.722Z,71.60
2019-01-24T20:39:55.259Z,71.67
2019-01-24T20:42:29.484Z,71.66
2019-01-24T20:45:09.172Z,71.61
2019-01-24T20:47:40.569Z,71.53
2019-01-24T20:50:19.546Z,71.46
2019-01-24T20:53:10.064Z,71.27
2019-01-24T20:55:46.839Z,71.24
2019-01-24T20:59:02.059Z,71.32
2019-01-24T21:01:40.650Z,71.39
2019-01-24T21:04:13.005Z,71.37
2019-01-24T21:06:45.940Z,71.33
2019-01-24T21:21:46.160Z,71.19
2019-01-24T21:24:56.942Z,71.18
2019-01-24T21:30:38.904Z,71.20
2019-01-24T21:36:33.096Z,71.14
2019-01-24T21:39:24.433Z,71.16
2019-01-24T21:41:54.755Z,71.15
2019-01-24T21:54:43.265Z,71.03
2019-01-24T21:57:34.338Z,70.99
2019-01-24T22:00:08.412Z,70.97
2019-01-24T22:02:49.871Z,71.07
2019-01-24T22:05:58.986Z,71.24
2019-01-24T22:11:39.967Z,71.27
2019-01-24T22:14:21.690Z,71.39
2019-01-24T22:17:04.216Z,71.38
2019-01-24T22:19:46.119Z,71.33
2019-01-24T22:22:28.163Z,71.37
2019-01-24T22:31:21.577Z,71.14
2019-01-24T22:34:03.456Z,71.14
2019-01-24T22:36:45.001Z,71.12
2019-01-24T22:39:27.730Z,71.16
2019-01-24T22:42:08.640Z,71.04
2019-01-24T22:44:50.833Z,71.15
2019-01-24T22:47:32.178Z,71.29
2019-01-24T22:56:05.257Z,71.24
2019-01-24T22:58:56.239Z,71.20
2019-01-24T23:01:37.937Z,71.14
2019-01-24T23:07:20.049Z,71.25
2019-01-24T23:16:06.080Z,71.42
2019-01-24T23:18:48.000Z,71.44
2019-01-24T23:24:32.903Z,71.47
2019-01-24T23:27:14.604Z,71.54
2019-01-24T23:29:56.596Z,71.57
2019-01-24T23:35:42.890Z,71.50
2019-01-24T23:38:24.147Z,71.64
2019-01-24T23:41:05.545Z,71.57
2019-01-24T23:44:15.450Z,71.62
2019-01-24T23:47:15.400Z,71.66
2019-01-24T23:50:16.068Z,71.75
2019-01-24T23:52:57.201Z,71.73
2019-01-24T23:55:40.180Z,71.77
2019-01-24T23:58:22.093Z,71.99
